createdAt,value
2023-03-26T00:01:41.645Z,6.00
2023-03-26T00:04:09.178Z,5.83
2023-03-26T00:06:39.978Z,6.23
2023-03-26T00:09:13.447Z,8.87
2023-03-26T00:11:41.688Z,7.57
2023-03-26T00:14:14.017Z,7.40
2023-03-26T00:16:47.615Z,5.87
2023-03-26T00:19:16.965Z,8.23
2023-03-26T00:21:44.657Z,9.13
2023-03-26T00:24:16.186Z,11.17
2023-03-26T00:26:44.848Z,7.40
2023-03-26T00:29:14.003Z,8.37
2023-03-26T00:31:46.523Z,10.53
2023-03-26T00:34:15.887Z,8.33
2023-03-26T00:36:44.072Z,11.83
2023-03-26T00:39:11.680Z,12.70
2023-03-26T00:41:43.263Z,6.80
2023-03-26T00:44:11.584Z,7.43
2023-03-26T00:46:39.316Z,8.40
2023-03-26T00:49:10.941Z,6.63
2023-03-26T00:51:39.351Z,6.87
2023-03-26T00:54:08.579Z,6.60
2023-03-26T00:56:37.088Z,7.63
2023-03-26T00:59:05.179Z,7.97
2023-03-26T01:01:32.965Z,9.23
2023-03-26T01:04:31.296Z,9.23
2023-03-26T01:07:04.220Z,6.23
2023-03-26T01:09:37.610Z,7.60
2023-03-26T01:12:08.216Z,7.30
2023-03-26T01:14:38.814Z,6.50
2023-03-26T01:17:09.275Z,7.40
2023-03-26T01:20:13.244Z,8.23
2023-03-26T01:22:49.785Z,7.10
2023-03-26T01:25:17.986Z,8.67
2023-03-26T01:27:47.416Z,9.83
2023-03-26T01:30:43.326Z,8.77
2023-03-26T01:33:37.072Z,8.90
2023-03-26T01:36:30.786Z,8.50
2023-03-26T01:39:08.075Z,8.53
2023-03-26T01:41:58.615Z,9.10
2023-03-26T01:44:42.887Z,11.57
2023-03-26T01:47:11.539Z,8.70
2023-03-26T01:49:39.028Z,8.30
2023-03-26T01:52:15.050Z,8.83
2023-03-26T01:54:43.065Z,11.73
2023-03-26T01:57:42.210Z,8.83
2023-03-26T02:00:24.639Z,11.17
2023-03-26T02:03:33.510Z,8.33
2023-03-26T02:06:23.717Z,9.63
2023-03-26T02:09:04.430Z,13.40
2023-03-26T02:11:35.309Z,10.57
2023-03-26T02:14:06.707Z,8.80
2023-03-26T02:16:34.291Z,9.80
2023-03-26T02:19:02.381Z,9.20
2023-03-26T02:21:33.970Z,8.20
2023-03-26T02:24:04.506Z,8.50
2023-03-26T02:26:37.784Z,8.00
2023-03-26T02:29:14.993Z,9.27
2023-03-26T02:31:44.972Z,7.33
2023-03-26T02:34:12.709Z,7.73
2023-03-26T02:36:47.258Z,8.53
2023-03-26T02:39:14.904Z,7.87
2023-03-26T02:41:48.741Z,8.33
2023-03-26T02:44:16.295Z,9.63
2023-03-26T02:46:59.044Z,6.27
2023-03-26T02:49:45.377Z,8.50
2023-03-26T02:52:19.142Z,11.13
2023-03-26T02:54:50.932Z,8.10
2023-03-26T02:57:21.199Z,7.80
2023-03-26T03:00:14.784Z,8.10
2023-03-26T03:02:49.042Z,5.70
2023-03-26T03:05:43.072Z,7.10
2023-03-26T03:08:38.088Z,6.93
2023-03-26T03:11:22.236Z,9.77
2023-03-26T03:13:52.370Z,5.37
2023-03-26T03:16:23.644Z,5.20
2023-03-26T03:18:57.816Z,4.90
2023-03-26T03:21:31.555Z,7.20
2023-03-26T03:24:00.129Z,4.63
2023-03-26T03:26:30.587Z,4.97
2023-03-26T03:29:03.457Z,6.03
2023-03-26T03:31:31.115Z,8.10
2023-03-26T03:34:03.700Z,5.97
2023-03-26T03:36:38.461Z,6.00
2023-03-26T03:39:14.956Z,7.17
2023-03-26T03:41:43.001Z,4.33
2023-03-26T03:44:14.234Z,5.87
2023-03-26T03:46:41.842Z,5.30
2023-03-26T03:49:09.300Z,6.20
2023-03-26T03:51:38.481Z,4.33
2023-03-26T03:54:15.187Z,4.20
2023-03-26T03:56:47.308Z,5.70
2023-03-26T03:59:15.528Z,3.80
2023-03-26T04:01:46.750Z,3.13
2023-03-26T04:04:24.798Z,7.13
2023-03-26T04:06:58.356Z,6.40
2023-03-26T04:09:30.783Z,5.30
2023-03-26T04:12:02.716Z,7.10
2023-03-26T04:14:39.267Z,5.40
2023-03-26T04:17:16.159Z,3.17
2023-03-26T04:19:45.675Z,4.13
2023-03-26T04:22:15.098Z,5.33
2023-03-26T04:24:54.760Z,4.80
2023-03-26T04:27:32.103Z,5.33
2023-03-26T04:30:23.283Z,3.10
2023-03-26T04:33:06.512Z,3.73
2023-03-26T04:35:41.698Z,4.90
2023-03-26T04:38:12.335Z,3.10
2023-03-26T04:40:47.699Z,3.37
2023-03-26T04:43:42.414Z,6.97
2023-03-26T04:46:21.947Z,4.63
2023-03-26T04:48:55.693Z,4.30
2023-03-26T04:51:30.355Z,3.73
2023-03-26T04:54:02.528Z,8.03
2023-03-26T04:57:08.272Z,2.97
2023-03-26T04:59:58.709Z,3.57
2023-03-26T05:02:26.687Z,3.03
2023-03-26T05:04:57.273Z,2.90
2023-03-26T05:07:28.453Z,2.93
2023-03-26T05:10:03.430Z,8.87
2023-03-26T05:12:53.014Z,6.77
2023-03-26T05:15:30.382Z,8.73
2023-03-26T05:17:58.097Z,4.20
2023-03-26T05:20:39.265Z,6.10
2023-03-26T05:23:09.010Z,3.63
2023-03-26T05:25:38.973Z,3.47
2023-03-26T05:28:14.153Z,1.30
2023-03-26T05:30:54.428Z,1.30
2023-03-26T05:33:24.542Z,0.97
2023-03-26T05:36:13.119Z,1.40
2023-03-26T05:38:47.689Z,1.80
2023-03-26T05:41:19.808Z,1.87
2023-03-26T05:43:49.083Z,2.20
2023-03-26T05:46:22.958Z,2.60
2023-03-26T05:48:52.087Z,1.77
2023-03-26T05:51:20.629Z,2.07
2023-03-26T05:53:56.853Z,2.13
2023-03-26T05:56:33.441Z,1.80
2023-03-26T05:59:19.569Z,2.83
2023-03-26T06:02:05.459Z,3.33
2023-03-26T06:04:53.213Z,2.47
2023-03-26T06:07:49.262Z,7.37
2023-03-26T06:10:19.525Z,1.40
2023-03-26T06:12:47.657Z,1.30
2023-03-26T06:15:15.624Z,4.30
2023-03-26T06:17:58.594Z,4.23
2023-03-26T06:20:51.606Z,2.67
2023-03-26T06:23:29.627Z,6.80
2023-03-26T06:26:07.898Z,3.60
2023-03-26T06:29:04.378Z,3.03
2023-03-26T06:32:06.169Z,1.93
2023-03-26T06:34:45.319Z,2.07
2023-03-26T06:37:13.489Z,3.37
2023-03-26T06:39:42.092Z,3.63
2023-03-26T06:43:06.474Z,1.50
2023-03-26T06:45:42.152Z,0.90
2023-03-26T06:48:42.792Z,2.50
2023-03-26T06:51:13.967Z,1.87
2023-03-26T06:54:14.100Z,3.47
2023-03-26T06:57:04.345Z,2.30
2023-03-26T07:00:08.684Z,3.73
2023-03-26T07:05:48.291Z,3.00
2023-03-26T07:08:34.550Z,6.50
2023-03-26T07:11:22.425Z,1.67
2023-03-26T07:14:10.230Z,5.40
2023-03-26T07:16:49.628Z,2.97
2023-03-26T07:19:46.101Z,1.63
2023-03-26T07:22:22.725Z,2.10
2023-03-26T07:25:07.019Z,3.83
2023-03-26T07:28:13.282Z,2.43
2023-03-26T07:31:27.167Z,6.87
2023-03-26T07:38:31.391Z,3.00
2023-03-26T07:41:46.519Z,2.30
2023-03-26T07:51:07.131Z,1.20
2023-03-26T08:20:58.413Z,1.20
2023-03-26T08:26:59.779Z,1.13
2023-03-26T08:30:05.257Z,4.90
2023-03-26T08:32:33.202Z,1.57
2023-03-26T08:35:01.219Z,2.13
2023-03-26T08:37:29.287Z,7.37
2023-03-26T08:39:57.156Z,2.50
2023-03-26T08:43:28.646Z,1.43
2023-03-26T08:46:10.386Z,2.23
2023-03-26T08:49:33.432Z,2.10
2023-03-26T08:52:50.478Z,2.80
2023-03-26T08:55:47.121Z,2.03
2023-03-26T08:58:25.613Z,2.50
2023-03-26T09:00:56.235Z,2.40
2023-03-26T09:03:50.600Z,0.93
2023-03-26T09:07:01.705Z,1.30
2023-03-26T09:09:56.800Z,3.47
2023-03-26T09:12:55.752Z,4.70
2023-03-26T09:16:15.602Z,4.00
2023-03-26T09:19:10.520Z,0.83
2023-03-26T09:22:38.520Z,1.13
2023-03-26T09:26:02.083Z,3.83
2023-03-26T09:28:36.476Z,4.07
2023-03-26T09:31:25.401Z,1.40
2023-03-26T09:34:31.496Z,5.83
2023-03-26T09:37:29.275Z,2.57
2023-03-26T09:40:29.462Z,2.20
2023-03-26T09:43:20.889Z,1.13
2023-03-26T09:46:07.467Z,1.47
2023-03-26T09:49:21.032Z,1.00
2023-03-26T09:51:51.911Z,3.50
2023-03-26T09:55:02.376Z,1.23
2023-03-26T09:58:02.458Z,0.63
2023-03-26T10:00:53.197Z,1.03
2023-03-26T10:03:59.079Z,0.60
2023-03-26T10:06:41.845Z,1.63
2023-03-26T10:09:48.350Z,1.23
2023-03-26T10:12:37.427Z,3.87
2023-03-26T10:15:57.258Z,1.90
2023-03-26T10:18:56.416Z,6.00
2023-03-26T10:21:36.810Z,1.30
2023-03-26T10:24:28.959Z,2.10
2023-03-26T10:27:08.442Z,5.67
2023-03-26T10:30:10.665Z,0.60
2023-03-26T10:33:07.281Z,0.70
2023-03-26T10:35:56.408Z,1.10
2023-03-26T10:38:51.292Z,1.77
2023-03-26T10:41:59.597Z,2.93
2023-03-26T10:45:07.706Z,4.70
2023-03-26T10:47:59.555Z,0.97
2023-03-26T10:51:19.267Z,0.87
2023-03-26T10:53:58.948Z,4.38
2023-03-26T10:56:45.380Z,1.67
2023-03-26T10:59:16.378Z,0.90
2023-03-26T11:02:30.028Z,1.55
2023-03-26T11:05:16.886Z,1.75
2023-03-26T11:08:36.664Z,0.50
2023-03-26T11:11:19.930Z,0.60
2023-03-26T11:14:36.332Z,1.05
2023-03-26T11:17:44.162Z,1.88
2023-03-26T11:20:37.971Z,0.47
2023-03-26T11:23:37.278Z,0.80
2023-03-26T11:26:13.589Z,0.50
2023-03-26T11:29:40.905Z,0.90
2023-03-26T11:32:46.962Z,2.80
2023-03-26T11:35:51.587Z,0.67
2023-03-26T11:47:31.807Z,0.63
2023-03-26T11:50:02.388Z,0.88
2023-03-26T11:52:29.917Z,0.30
2023-03-26T11:54:58.592Z,2.80
2023-03-26T11:57:33.659Z,2.17
2023-03-26T12:00:17.994Z,0.40
2023-03-26T12:02:47.853Z,0.30
2023-03-26T12:05:27.611Z,1.58
2023-03-26T12:08:11.318Z,0.57
2023-03-26T12:11:03.303Z,2.17
2023-03-26T12:13:55.571Z,1.52
2023-03-26T12:16:23.432Z,3.33
2023-03-26T12:19:19.713Z,2.70
2023-03-26T12:21:53.362Z,1.33
2023-03-26T12:24:36.114Z,1.47
2023-03-26T12:27:25.765Z,0.57
2023-03-26T12:30:00.305Z,1.33
2023-03-26T12:32:45.223Z,2.13
2023-03-26T12:35:25.715Z,0.70
2023-03-26T12:37:54.746Z,1.20
2023-03-26T12:40:36.760Z,0.60
2023-03-26T12:44:54.243Z,2.20
2023-03-26T12:47:55.628Z,4.03
2023-03-26T12:49:23.061Z,0.68
2023-03-26T12:51:58.879Z,0.32
2023-03-26T12:54:48.475Z,0.60
2023-03-26T12:57:26.607Z,1.05
2023-03-26T13:00:09.908Z,11.02
2023-03-26T13:02:46.583Z,3.40
2023-03-26T13:05:22.755Z,4.80
2023-03-26T13:08:07.024Z,1.97
2023-03-26T13:11:11.603Z,5.17
2023-03-26T13:14:15.937Z,0.80
2023-03-26T13:16:52.610Z,1.00
2023-03-26T13:19:53.694Z,1.17
2023-03-26T13:22:49.164Z,1.17
2023-03-26T13:25:44.635Z,2.53
2023-03-26T13:28:37.615Z,0.73
2023-03-26T13:31:39.208Z,0.68
2023-03-26T13:34:49.393Z,0.75
2023-03-26T13:37:32.979Z,0.55
2023-03-26T13:40:37.935Z,3.10
2023-03-26T13:43:15.509Z,0.82
2023-03-26T13:46:05.468Z,2.38
2023-03-26T13:48:43.217Z,0.88
2023-03-26T13:51:37.978Z,3.35
2023-03-26T13:54:27.147Z,2.20
2023-03-26T13:57:25.664Z,43.08
2023-03-26T14:00:18.296Z,1.20
2023-03-26T14:03:02.175Z,5.80
2023-03-26T14:05:44.442Z,0.60
2023-03-26T14:08:23.622Z,0.60
2023-03-26T14:11:21.599Z,2.15
2023-03-26T14:14:23.684Z,1.08
2023-03-26T14:17:27.341Z,1.27
2023-03-26T14:20:24.598Z,0.50
2023-03-26T14:23:25.706Z,0.55
2023-03-26T14:26:15.871Z,0.50
2023-03-26T14:29:12.797Z,0.38
2023-03-26T14:31:45.537Z,1.33
2023-03-26T14:35:01.234Z,1.95
2023-03-26T14:37:46.520Z,5.18
2023-03-26T14:40:58.725Z,1.23
2023-03-26T14:44:47.666Z,2.88
2023-03-26T14:47:21.821Z,3.25
2023-03-26T14:50:26.744Z,2.20
2023-03-26T14:53:01.310Z,2.30
2023-03-26T14:56:08.438Z,2.80
2023-03-26T14:59:38.650Z,2.90
2023-03-26T15:05:57.408Z,3.90
2023-03-26T15:09:15.803Z,3.95
2023-03-26T15:12:25.780Z,0.50
2023-03-26T15:15:26.067Z,2.40
2023-03-26T15:18:27.806Z,0.80
2023-03-26T15:21:51.224Z,0.60
2023-03-26T15:24:27.635Z,1.02
2023-03-26T15:27:36.696Z,0.88
2023-03-26T15:30:55.064Z,1.00
2023-03-26T15:34:07.482Z,1.75
2023-03-26T15:37:02.364Z,1.02
2023-03-26T15:39:59.762Z,1.65
2023-03-26T15:43:01.543Z,3.42
2023-03-26T15:45:53.797Z,4.05
2023-03-26T15:48:54.634Z,0.70
2023-03-26T15:52:08.454Z,3.75
2023-03-26T15:55:10.561Z,10.35
2023-03-26T15:57:47.496Z,5.65
2023-03-26T16:00:25.593Z,4.93
2023-03-26T16:03:26.504Z,5.07
2023-03-26T16:06:18.882Z,2.50
2023-03-26T16:09:24.401Z,2.35
2023-03-26T16:12:00.978Z,3.08
2023-03-26T16:15:05.798Z,3.97
2023-03-26T16:18:19.108Z,5.45
2023-03-26T16:21:32.082Z,11.73
2023-03-26T16:24:03.065Z,34.58
2023-03-26T16:27:11.983Z,96.50
2023-03-26T16:30:26.478Z,35.33
2023-03-26T16:33:04.279Z,31.33
2023-03-26T16:36:03.806Z,71.15
2023-03-26T16:39:14.741Z,49.17
2023-03-26T16:41:50.983Z,46.95
2023-03-26T16:44:40.603Z,49.90
2023-03-26T16:47:47.032Z,37.83
2023-03-26T16:50:52.214Z,40.40
2023-03-26T16:53:41.798Z,124.95
2023-03-26T16:56:22.402Z,68.45
2023-03-26T16:58:57.421Z,18.30
2023-03-26T17:01:46.531Z,12.77
2023-03-26T17:04:23.566Z,10.10
2023-03-26T17:07:14.256Z,11.73
2023-03-26T17:10:01.139Z,9.43
2023-03-26T17:12:43.023Z,10.38
2023-03-26T17:15:34.436Z,12.43
2023-03-26T17:18:13.689Z,14.35
2023-03-26T17:21:02.052Z,15.63
2023-03-26T17:24:15.228Z,23.10
2023-03-26T17:27:12.442Z,44.40
2023-03-26T17:30:23.230Z,35.93
2023-03-26T17:33:06.072Z,21.87
2023-03-26T17:35:49.129Z,16.07
2023-03-26T17:38:16.732Z,15.67
2023-03-26T17:40:55.864Z,9.43
2023-03-26T17:43:47.483Z,17.23
2023-03-26T17:46:39.635Z,14.63
2023-03-26T17:49:13.941Z,10.03
2023-03-26T17:51:53.060Z,13.83
2023-03-26T17:54:49.444Z,9.97
2023-03-26T17:57:45.857Z,8.10
2023-03-26T18:00:24.428Z,10.90
2023-03-26T18:03:24.240Z,9.87
2023-03-26T18:05:56.593Z,6.50
2023-03-26T18:09:17.241Z,7.90
2023-03-26T18:12:30.062Z,6.67
2023-03-26T18:15:22.413Z,5.00
2023-03-26T18:18:25.379Z,3.87
2023-03-26T18:20:57.290Z,3.20
2023-03-26T18:23:44.098Z,3.97
2023-03-26T18:26:37.502Z,4.23
2023-03-26T18:29:36.244Z,4.50
2023-03-26T18:32:13.365Z,5.90
2023-03-26T18:34:50.174Z,15.83
2023-03-26T18:37:37.076Z,27.63
2023-03-26T18:40:16.035Z,37.53
2023-03-26T18:42:59.141Z,34.00
2023-03-26T18:45:36.917Z,13.97
2023-03-26T18:48:22.879Z,7.70
2023-03-26T18:51:26.124Z,11.13
2023-03-26T18:53:59.982Z,7.43
2023-03-26T18:56:42.511Z,9.20
2023-03-26T18:59:41.454Z,10.23
2023-03-26T19:02:36.430Z,10.50
2023-03-26T19:05:05.738Z,4.10
2023-03-26T19:07:36.731Z,5.70
2023-03-26T19:10:08.191Z,3.40
2023-03-26T19:12:38.777Z,2.83
2023-03-26T19:15:18.941Z,1.00
2023-03-26T19:17:56.022Z,2.57
2023-03-26T19:21:03.639Z,1.80
2023-03-26T19:23:37.099Z,1.93
2023-03-26T19:26:16.146Z,1.40
2023-03-26T19:29:30.637Z,1.87
2023-03-26T19:32:29.436Z,2.20
2023-03-26T19:35:10.008Z,3.70
2023-03-26T19:37:57.106Z,2.50
2023-03-26T19:40:32.268Z,3.63
2023-03-26T19:43:05.146Z,6.27
2023-03-26T19:45:36.501Z,7.80
2023-03-26T19:48:45.414Z,6.57
2023-03-26T19:51:23.333Z,7.03
2023-03-26T19:54:01.148Z,9.53
2023-03-26T19:56:30.538Z,9.83
2023-03-26T19:58:59.913Z,15.03
2023-03-26T20:01:35.672Z,18.47
2023-03-26T20:04:06.956Z,9.67
2023-03-26T20:06:43.742Z,6.50
2023-03-26T20:09:13.827Z,39.57
2023-03-26T20:11:41.941Z,84.27
2023-03-26T20:14:26.445Z,42.03
2023-03-26T20:16:54.681Z,25.40
2023-03-26T20:19:23.077Z,23.07
2023-03-26T20:21:56.895Z,13.07
2023-03-26T20:24:27.379Z,5.93
2023-03-26T20:26:56.042Z,7.27
2023-03-26T20:29:23.724Z,6.77
2023-03-26T20:31:51.319Z,5.27
2023-03-26T20:34:25.609Z,34.90
2023-03-26T20:37:01.396Z,61.80
2023-03-26T20:39:30.104Z,58.27
2023-03-26T20:41:58.954Z,137.70
2023-03-26T20:44:28.258Z,124.53
2023-03-26T20:46:57.341Z,55.13
2023-03-26T20:49:25.084Z,21.23
2023-03-26T20:51:52.776Z,5.83
2023-03-26T20:54:25.238Z,5.70
2023-03-26T20:56:54.719Z,5.60
2023-03-26T20:59:29.554Z,9.23
2023-03-26T21:01:59.486Z,19.50
2023-03-26T21:04:29.917Z,61.13
2023-03-26T21:07:07.001Z,49.87
2023-03-26T21:09:39.884Z,11.03
2023-03-26T21:12:43.357Z,15.43
2023-03-26T21:15:22.514Z,7.93
2023-03-26T21:17:53.098Z,6.13
2023-03-26T21:20:24.974Z,4.83
2023-03-26T21:23:23.182Z,3.30
2023-03-26T21:26:17.987Z,3.23
2023-03-26T21:28:49.882Z,3.27
2023-03-26T21:31:24.645Z,5.83
2023-03-26T21:33:52.731Z,2.40
2023-03-26T21:36:21.330Z,1.63
2023-03-26T21:38:50.546Z,3.93
2023-03-26T21:41:23.637Z,4.73
2023-03-26T21:43:52.041Z,10.27
2023-03-26T21:46:19.994Z,10.10
2023-03-26T21:48:47.899Z,12.23
2023-03-26T21:51:19.553Z,8.63
2023-03-26T21:53:48.997Z,6.53
2023-03-26T21:56:41.872Z,10.97
2023-03-26T21:59:27.073Z,15.03
2023-03-26T22:02:11.432Z,14.83
2023-03-26T22:05:22.789Z,13.93
2023-03-26T22:07:57.425Z,16.33
2023-03-26T22:10:27.039Z,12.00
2023-03-26T22:12:54.834Z,8.97
2023-03-26T22:15:22.673Z,8.53
2023-03-26T22:17:54.147Z,10.30
2023-03-26T22:20:25.299Z,7.67
2023-03-26T22:22:53.514Z,6.00
2023-03-26T22:25:23.244Z,5.80
2023-03-26T22:27:52.845Z,5.17
2023-03-26T22:30:22.049Z,7.90
2023-03-26T22:32:50.345Z,3.13
2023-03-26T22:35:18.128Z,3.73
2023-03-26T22:37:46.141Z,1.93
2023-03-26T22:40:13.837Z,1.77
2023-03-26T22:42:41.904Z,4.20
2023-03-26T22:45:11.535Z,1.40
2023-03-26T22:47:40.460Z,1.63
2023-03-26T22:50:09.612Z,2.53
2023-03-26T22:52:38.981Z,2.70
2023-03-26T22:55:07.973Z,3.10
2023-03-26T22:57:35.509Z,7.07
2023-03-26T23:00:22.150Z,10.47
2023-03-26T23:02:49.993Z,6.80
2023-03-26T23:05:18.296Z,4.93
2023-03-26T23:07:46.673Z,3.43
2023-03-26T23:10:16.565Z,2.53
2023-03-26T23:12:44.004Z,2.47
2023-03-26T23:15:12.005Z,2.30
2023-03-26T23:17:39.819Z,3.33
2023-03-26T23:20:15.513Z,1.30
2023-03-26T23:22:44.107Z,2.20
2023-03-26T23:25:12.666Z,4.63
2023-03-26T23:27:41.484Z,1.70
2023-03-26T23:30:10.937Z,1.57
2023-03-26T23:32:38.757Z,2.27
2023-03-26T23:35:07.098Z,2.77
2023-03-26T23:37:35.997Z,1.27
2023-03-26T23:40:10.287Z,1.40
2023-03-26T23:42:38.567Z,0.90
2023-03-26T23:45:09.009Z,1.10
2023-03-26T23:47:37.392Z,1.90
2023-03-26T23:50:06.661Z,17.33
2023-03-26T23:52:34.157Z,11.23
2023-03-26T23:55:02.113Z,12.33
2023-03-26T23:57:30.577Z,12.23
2023-03-26T23:59:58.459Z,5.07
